sensor_id;sensor_type;location;lat;lon;timestamp;P1;durP1;ratioP1;P2;durP2;ratioP2
15706;SDS011;7953;54.302;10.128;2023-05-25T00:02:20;13.10;;;5.33;;
15706;SDS011;7953;54.302;10.128;2023-05-25T00:04:48;12.77;;;5.83;;
15706;SDS011;7953;54.302;10.128;2023-05-25T00:07:16;9.67;;;4.87;;
15706;SDS011;7953;54.302;10.128;2023-05-25T00:09:44;15.43;;;5.97;;
15706;SDS011;7953;54.302;10.128;2023-05-25T00:12:12;10.17;;;5.10;;
15706;SDS011;7953;54.302;10.128;2023-05-25T00:14:39;18.10;;;6.30;;
15706;SDS011;7953;54.302;10.128;2023-05-25T00:17:06;16.57;;;6.47;;
15706;SDS011;7953;54.302;10.128;2023-05-25T00:19:33;11.63;;;5.97;;
15706;SDS011;7953;54.302;10.128;2023-05-25T00:22:00;11.73;;;5.93;;
15706;SDS011;7953;54.302;10.128;2023-05-25T00:24:28;10.37;;;6.30;;
15706;SDS011;7953;54.302;10.128;2023-05-25T00:26:57;15.50;;;6.20;;
15706;SDS011;7953;54.302;10.128;2023-05-25T00:29:24;11.73;;;5.03;;
15706;SDS011;7953;54.302;10.128;2023-05-25T00:31:51;13.03;;;6.27;;
15706;SDS011;7953;54.302;10.128;2023-05-25T00:34:18;17.33;;;6.07;;
15706;SDS011;7953;54.302;10.128;2023-05-25T00:36:45;14.50;;;6.37;;
15706;SDS011;7953;54.302;10.128;2023-05-25T00:39:13;16.27;;;6.87;;
15706;SDS011;7953;54.302;10.128;2023-05-25T00:41:41;17.03;;;5.80;;
15706;SDS011;7953;54.302;10.128;2023-05-25T00:44:11;15.60;;;6.73;;
15706;SDS011;7953;54.302;10.128;2023-05-25T00:46:40;15.50;;;7.00;;
15706;SDS011;7953;54.302;10.128;2023-05-25T00:49:12;10.47;;;5.53;;
15706;SDS011;7953;54.302;10.128;2023-05-25T00:51:40;13.67;;;5.90;;
15706;SDS011;7953;54.302;10.128;2023-05-25T00:54:10;13.57;;;5.83;;
15706;SDS011;7953;54.302;10.128;2023-05-25T00:56:38;8.90;;;5.80;;
15706;SDS011;7953;54.302;10.128;2023-05-25T00:59:07;10.73;;;6.07;;
15706;SDS011;7953;54.302;10.128;2023-05-25T01:01:38;12.57;;;6.57;;
15706;SDS011;7953;54.302;10.128;2023-05-25T01:04:06;13.03;;;6.30;;
15706;SDS011;7953;54.302;10.128;2023-05-25T01:06:35;11.20;;;6.07;;
15706;SDS011;7953;54.302;10.128;2023-05-25T01:09:03;12.93;;;6.10;;
15706;SDS011;7953;54.302;10.128;2023-05-25T01:11:35;11.43;;;6.23;;
15706;SDS011;7953;54.302;10.128;2023-05-25T01:14:04;14.87;;;6.10;;
15706;SDS011;7953;54.302;10.128;2023-05-25T01:16:31;11.43;;;5.77;;
15706;SDS011;7953;54.302;10.128;2023-05-25T01:19:00;12.87;;;6.30;;
15706;SDS011;7953;54.302;10.128;2023-05-25T01:21:30;14.73;;;6.77;;
15706;SDS011;7953;54.302;10.128;2023-05-25T01:24:07;10.33;;;4.97;;
15706;SDS011;7953;54.302;10.128;2023-05-25T01:26:38;9.30;;;5.83;;
15706;SDS011;7953;54.302;10.128;2023-05-25T01:29:09;10.40;;;5.63;;
15706;SDS011;7953;54.302;10.128;2023-05-25T01:31:37;8.90;;;5.40;;
15706;SDS011;7953;54.302;10.128;2023-05-25T01:34:05;13.40;;;6.10;;
15706;SDS011;7953;54.302;10.128;2023-05-25T01:36:34;11.87;;;5.90;;
15706;SDS011;7953;54.302;10.128;2023-05-25T01:39:01;12.40;;;5.80;;
15706;SDS011;7953;54.302;10.128;2023-05-25T01:41:31;17.73;;;6.33;;
15706;SDS011;7953;54.302;10.128;2023-05-25T01:43:58;11.17;;;5.60;;
15706;SDS011;7953;54.302;10.128;2023-05-25T01:46:27;9.90;;;5.43;;
15706;SDS011;7953;54.302;10.128;2023-05-25T01:49:01;11.10;;;6.10;;
15706;SDS011;7953;54.302;10.128;2023-05-25T01:51:41;9.43;;;5.00;;
15706;SDS011;7953;54.302;10.128;2023-05-25T01:54:17;14.67;;;5.77;;
15706;SDS011;7953;54.302;10.128;2023-05-25T01:56:45;10.67;;;5.93;;
15706;SDS011;7953;54.302;10.128;2023-05-25T01:59:14;10.07;;;5.33;;
15706;SDS011;7953;54.302;10.128;2023-05-25T02:01:45;8.57;;;5.37;;
15706;SDS011;7953;54.302;10.128;2023-05-25T02:04:13;11.10;;;6.07;;
15706;SDS011;7953;54.302;10.128;2023-05-25T02:06:43;10.20;;;4.87;;
15706;SDS011;7953;54.302;10.128;2023-05-25T02:09:13;10.23;;;5.33;;
15706;SDS011;7953;54.302;10.128;2023-05-25T02:11:40;14.10;;;5.50;;
15706;SDS011;7953;54.302;10.128;2023-05-25T02:14:07;14.23;;;6.07;;
15706;SDS011;7953;54.302;10.128;2023-05-25T02:16:35;8.47;;;5.10;;
15706;SDS011;7953;54.302;10.128;2023-05-25T02:19:01;12.30;;;5.63;;
15706;SDS011;7953;54.302;10.128;2023-05-25T02:21:28;12.00;;;5.53;;
15706;SDS011;7953;54.302;10.128;2023-05-25T02:23:57;7.97;;;5.17;;
15706;SDS011;7953;54.302;10.128;2023-05-25T02:26:23;8.97;;;5.67;;
15706;SDS011;7953;54.302;10.128;2023-05-25T02:28:50;10.73;;;5.77;;
15706;SDS011;7953;54.302;10.128;2023-05-25T02:31:17;10.90;;;5.50;;
15706;SDS011;7953;54.302;10.128;2023-05-25T02:33:44;14.47;;;5.20;;
15706;SDS011;7953;54.302;10.128;2023-05-25T02:36:11;9.87;;;5.40;;
15706;SDS011;7953;54.302;10.128;2023-05-25T02:38:38;9.37;;;5.90;;
15706;SDS011;7953;54.302;10.128;2023-05-25T02:41:06;15.00;;;5.03;;
15706;SDS011;7953;54.302;10.128;2023-05-25T02:43:33;9.43;;;5.27;;
15706;SDS011;7953;54.302;10.128;2023-05-25T02:46:00;9.10;;;4.93;;
15706;SDS011;7953;54.302;10.128;2023-05-25T02:48:27;12.13;;;4.87;;
15706;SDS011;7953;54.302;10.128;2023-05-25T02:50:54;11.47;;;5.10;;
15706;SDS011;7953;54.302;10.128;2023-05-25T02:53:20;15.40;;;6.20;;
15706;SDS011;7953;54.302;10.128;2023-05-25T02:55:47;12.80;;;6.20;;
15706;SDS011;7953;54.302;10.128;2023-05-25T02:58:16;12.17;;;6.00;;
15706;SDS011;7953;54.302;10.128;2023-05-25T03:00:42;12.50;;;5.43;;
15706;SDS011;7953;54.302;10.128;2023-05-25T03:03:10;12.37;;;6.03;;
15706;SDS011;7953;54.302;10.128;2023-05-25T03:05:37;10.67;;;5.47;;
15706;SDS011;7953;54.302;10.128;2023-05-25T03:08:04;12.50;;;5.30;;
15706;SDS011;7953;54.302;10.128;2023-05-25T03:10:31;11.60;;;4.87;;
15706;SDS011;7953;54.302;10.128;2023-05-25T03:12:58;13.40;;;5.73;;
15706;SDS011;7953;54.302;10.128;2023-05-25T03:15:26;11.63;;;5.07;;
15706;SDS011;7953;54.302;10.128;2023-05-25T03:17:53;11.43;;;5.50;;
15706;SDS011;7953;54.302;10.128;2023-05-25T03:20:25;11.20;;;5.43;;
15706;SDS011;7953;54.302;10.128;2023-05-25T03:22:52;11.77;;;5.27;;
15706;SDS011;7953;54.302;10.128;2023-05-25T03:25:19;11.53;;;4.73;;
15706;SDS011;7953;54.302;10.128;2023-05-25T03:27:46;10.13;;;5.40;;
15706;SDS011;7953;54.302;10.128;2023-05-25T03:30:16;14.00;;;5.50;;
15706;SDS011;7953;54.302;10.128;2023-05-25T03:32:44;11.33;;;5.10;;
15706;SDS011;7953;54.302;10.128;2023-05-25T03:35:11;11.37;;;5.23;;
15706;SDS011;7953;54.302;10.128;2023-05-25T03:37:38;12.53;;;5.53;;
15706;SDS011;7953;54.302;10.128;2023-05-25T03:40:06;8.20;;;4.27;;
15706;SDS011;7953;54.302;10.128;2023-05-25T03:42:35;14.33;;;5.67;;
15706;SDS011;7953;54.302;10.128;2023-05-25T03:45:02;12.37;;;5.63;;
15706;SDS011;7953;54.302;10.128;2023-05-25T03:47:30;10.60;;;5.00;;
15706;SDS011;7953;54.302;10.128;2023-05-25T03:49:58;9.37;;;5.30;;
15706;SDS011;7953;54.302;10.128;2023-05-25T03:52:25;10.70;;;5.33;;
15706;SDS011;7953;54.302;10.128;2023-05-25T03:54:52;12.20;;;5.70;;
15706;SDS011;7953;54.302;10.128;2023-05-25T03:57:19;12.10;;;5.80;;
15706;SDS011;7953;54.302;10.128;2023-05-25T03:59:46;14.37;;;4.93;;
15706;SDS011;7953;54.302;10.128;2023-05-25T04:02:12;8.33;;;4.83;;
15706;SDS011;7953;54.302;10.128;2023-05-25T04:04:39;16.03;;;5.73;;
15706;SDS011;7953;54.302;10.128;2023-05-25T04:07:08;13.10;;;4.73;;
15706;SDS011;7953;54.302;10.128;2023-05-25T04:09:34;11.23;;;5.30;;
15706;SDS011;7953;54.302;10.128;2023-05-25T04:12:01;11.27;;;5.70;;
15706;SDS011;7953;54.302;10.128;2023-05-25T04:14:29;10.77;;;5.20;;
15706;SDS011;7953;54.302;10.128;2023-05-25T04:16:56;12.40;;;5.30;;
15706;SDS011;7953;54.302;10.128;2023-05-25T04:19:22;16.80;;;6.27;;
15706;SDS011;7953;54.302;10.128;2023-05-25T04:21:49;14.53;;;5.27;;
15706;SDS011;7953;54.302;10.128;2023-05-25T04:24:17;16.27;;;5.77;;
15706;SDS011;7953;54.302;10.128;2023-05-25T04:26:44;15.47;;;5.47;;
15706;SDS011;7953;54.302;10.128;2023-05-25T04:29:11;15.27;;;4.93;;
15706;SDS011;7953;54.302;10.128;2023-05-25T04:31:38;15.73;;;5.20;;
15706;SDS011;7953;54.302;10.128;2023-05-25T04:34:07;14.30;;;5.70;;
15706;SDS011;7953;54.302;10.128;2023-05-25T04:36:34;14.50;;;4.97;;
15706;SDS011;7953;54.302;10.128;2023-05-25T04:39:02;15.23;;;5.37;;
15706;SDS011;7953;54.302;10.128;2023-05-25T04:41:31;16.60;;;6.30;;
15706;SDS011;7953;54.302;10.128;2023-05-25T04:43:58;14.23;;;5.17;;
15706;SDS011;7953;54.302;10.128;2023-05-25T04:46:25;14.47;;;5.20;;
15706;SDS011;7953;54.302;10.128;2023-05-25T04:48:52;24.73;;;5.63;;
15706;SDS011;7953;54.302;10.128;2023-05-25T04:51:19;15.30;;;5.53;;
15706;SDS011;7953;54.302;10.128;2023-05-25T04:53:47;20.97;;;5.97;;
15706;SDS011;7953;54.302;10.128;2023-05-25T04:56:13;16.33;;;5.80;;
15706;SDS011;7953;54.302;10.128;2023-05-25T04:58:42;19.47;;;5.73;;
15706;SDS011;7953;54.302;10.128;2023-05-25T05:01:09;20.27;;;5.73;;
15706;SDS011;7953;54.302;10.128;2023-05-25T05:03:36;17.90;;;5.47;;
15706;SDS011;7953;54.302;10.128;2023-05-25T05:06:03;14.50;;;5.60;;
15706;SDS011;7953;54.302;10.128;2023-05-25T05:08:30;18.47;;;6.13;;
15706;SDS011;7953;54.302;10.128;2023-05-25T05:10:57;18.40;;;5.77;;
15706;SDS011;7953;54.302;10.128;2023-05-25T05:13:24;22.07;;;5.53;;
15706;SDS011;7953;54.302;10.128;2023-05-25T05:15:52;17.50;;;5.67;;
15706;SDS011;7953;54.302;10.128;2023-05-25T05:18:19;20.10;;;5.87;;
15706;SDS011;7953;54.302;10.128;2023-05-25T05:20:46;20.00;;;5.77;;
15706;SDS011;7953;54.302;10.128;2023-05-25T05:23:12;22.37;;;6.20;;
15706;SDS011;7953;54.302;10.128;2023-05-25T05:25:39;16.63;;;6.13;;
15706;SDS011;7953;54.302;10.128;2023-05-25T05:28:06;25.33;;;6.13;;
15706;SDS011;7953;54.302;10.128;2023-05-25T05:30:33;16.07;;;5.37;;
15706;SDS011;7953;54.302;10.128;2023-05-25T05:33:01;20.43;;;5.87;;
15706;SDS011;7953;54.302;10.128;2023-05-25T05:35:28;16.83;;;5.80;;
15706;SDS011;7953;54.302;10.128;2023-05-25T05:37:56;23.73;;;6.97;;
15706;SDS011;7953;54.302;10.128;2023-05-25T05:40:23;20.03;;;5.50;;
15706;SDS011;7953;54.302;10.128;2023-05-25T05:42:50;21.80;;;5.83;;
15706;SDS011;7953;54.302;10.128;2023-05-25T05:45:17;14.87;;;5.37;;
15706;SDS011;7953;54.302;10.128;2023-05-25T05:47:44;24.57;;;5.87;;
15706;SDS011;7953;54.302;10.128;2023-05-25T05:50:12;25.30;;;7.20;;
15706;SDS011;7953;54.302;10.128;2023-05-25T05:52:39;40.50;;;6.73;;
15706;SDS011;7953;54.302;10.128;2023-05-25T05:55:06;23.90;;;5.90;;
15706;SDS011;7953;54.302;10.128;2023-05-25T05:57:34;25.17;;;6.43;;
15706;SDS011;7953;54.302;10.128;2023-05-25T06:00:01;21.23;;;5.83;;
15706;SDS011;7953;54.302;10.128;2023-05-25T06:02:30;26.17;;;6.53;;
15706;SDS011;7953;54.302;10.128;2023-05-25T06:04:57;23.87;;;6.17;;
15706;SDS011;7953;54.302;10.128;2023-05-25T06:07:27;22.97;;;6.00;;
15706;SDS011;7953;54.302;10.128;2023-05-25T06:09:54;23.93;;;6.50;;
15706;SDS011;7953;54.302;10.128;2023-05-25T06:12:21;24.33;;;6.40;;
15706;SDS011;7953;54.302;10.128;2023-05-25T06:14:48;22.77;;;6.33;;
15706;SDS011;7953;54.302;10.128;2023-05-25T06:17:16;29.70;;;7.07;;
15706;SDS011;7953;54.302;10.128;2023-05-25T06:19:43;24.90;;;5.93;;
15706;SDS011;7953;54.302;10.128;2023-05-25T06:22:10;19.00;;;5.77;;
15706;SDS011;7953;54.302;10.128;2023-05-25T06:24:38;29.87;;;6.73;;
15706;SDS011;7953;54.302;10.128;2023-05-25T06:27:05;21.83;;;5.80;;
15706;SDS011;7953;54.302;10.128;2023-05-25T06:29:32;24.13;;;6.43;;
15706;SDS011;7953;54.302;10.128;2023-05-25T06:31:59;19.10;;;6.17;;
15706;SDS011;7953;54.302;10.128;2023-05-25T06:34:26;21.13;;;5.87;;
15706;SDS011;7953;54.302;10.128;2023-05-25T06:36:53;21.53;;;6.17;;
15706;SDS011;7953;54.302;10.128;2023-05-25T06:39:20;21.83;;;6.97;;
15706;SDS011;7953;54.302;10.128;2023-05-25T06:41:48;20.33;;;5.33;;
15706;SDS011;7953;54.302;10.128;2023-05-25T06:44:16;19.30;;;6.90;;
15706;SDS011;7953;54.302;10.128;2023-05-25T06:46:43;20.33;;;5.67;;
15706;SDS011;7953;54.302;10.128;2023-05-25T06:49:10;25.47;;;6.03;;
15706;SDS011;7953;54.302;10.128;2023-05-25T06:51:36;19.30;;;5.50;;
15706;SDS011;7953;54.302;10.128;2023-05-25T06:54:03;20.83;;;5.63;;
15706;SDS011;7953;54.302;10.128;2023-05-25T06:56:32;20.33;;;5.70;;
15706;SDS011;7953;54.302;10.128;2023-05-25T06:59:00;22.97;;;5.93;;
15706;SDS011;7953;54.302;10.128;2023-05-25T07:01:27;26.03;;;6.97;;
15706;SDS011;7953;54.302;10.128;2023-05-25T07:03:54;20.23;;;6.07;;
15706;SDS011;7953;54.302;10.128;2023-05-25T07:06:21;18.07;;;5.37;;
15706;SDS011;7953;54.302;10.128;2023-05-25T07:08:48;20.73;;;5.00;;
15706;SDS011;7953;54.302;10.128;2023-05-25T07:11:15;22.13;;;6.23;;
15706;SDS011;7953;54.302;10.128;2023-05-25T07:13:44;19.33;;;5.70;;
15706;SDS011;7953;54.302;10.128;2023-05-25T07:16:13;21.37;;;7.03;;
15706;SDS011;7953;54.302;10.128;2023-05-25T07:18:40;26.90;;;5.93;;
15706;SDS011;7953;54.302;10.128;2023-05-25T07:21:07;20.83;;;5.73;;
15706;SDS011;7953;54.302;10.128;2023-05-25T07:23:34;23.87;;;6.87;;
15706;SDS011;7953;54.302;10.128;2023-05-25T07:26:01;22.03;;;6.77;;
15706;SDS011;7953;54.302;10.128;2023-05-25T07:28:28;21.50;;;6.03;;
15706;SDS011;7953;54.302;10.128;2023-05-25T07:30:55;16.30;;;6.10;;
15706;SDS011;7953;54.302;10.128;2023-05-25T07:33:23;23.03;;;6.07;;
15706;SDS011;7953;54.302;10.128;2023-05-25T07:35:50;25.03;;;6.97;;
15706;SDS011;7953;54.302;10.128;2023-05-25T07:38:17;19.03;;;6.40;;
15706;SDS011;7953;54.302;10.128;2023-05-25T07:40:44;20.33;;;6.03;;
15706;SDS011;7953;54.302;10.128;2023-05-25T07:43:11;26.40;;;6.97;;
15706;SDS011;7953;54.302;10.128;2023-05-25T07:45:38;20.77;;;6.20;;
15706;SDS011;7953;54.302;10.128;2023-05-25T07:48:05;23.57;;;6.57;;
15706;SDS011;7953;54.302;10.128;2023-05-25T07:50:34;28.00;;;5.97;;
15706;SDS011;7953;54.302;10.128;2023-05-25T07:53:01;21.10;;;6.30;;
15706;SDS011;7953;54.302;10.128;2023-05-25T07:55:28;26.43;;;7.30;;
15706;SDS011;7953;54.302;10.128;2023-05-25T07:57:55;22.13;;;5.87;;
15706;SDS011;7953;54.302;10.128;2023-05-25T08:00:22;25.87;;;6.57;;
15706;SDS011;7953;54.302;10.128;2023-05-25T08:02:49;16.23;;;5.83;;
15706;SDS011;7953;54.302;10.128;2023-05-25T08:05:16;27.57;;;6.53;;
15706;SDS011;7953;54.302;10.128;2023-05-25T08:07:45;25.63;;;6.50;;
15706;SDS011;7953;54.302;10.128;2023-05-25T08:10:12;20.97;;;5.67;;
15706;SDS011;7953;54.302;10.128;2023-05-25T08:12:39;31.23;;;7.30;;
15706;SDS011;7953;54.302;10.128;2023-05-25T08:15:06;16.17;;;5.47;;
15706;SDS011;7953;54.302;10.128;2023-05-25T08:17:33;18.67;;;5.97;;
15706;SDS011;7953;54.302;10.128;2023-05-25T08:20:00;20.23;;;6.23;;
15706;SDS011;7953;54.302;10.128;2023-05-25T08:22:30;16.27;;;5.43;;
15706;SDS011;7953;54.302;10.128;2023-05-25T08:24:58;16.80;;;5.50;;
15706;SDS011;7953;54.302;10.128;2023-05-25T08:27:25;23.97;;;5.93;;
15706;SDS011;7953;54.302;10.128;2023-05-25T08:29:52;30.53;;;7.10;;
15706;SDS011;7953;54.302;10.128;2023-05-25T08:32:18;17.53;;;5.40;;
15706;SDS011;7953;54.302;10.128;2023-05-25T08:34:45;18.93;;;5.60;;
15706;SDS011;7953;54.302;10.128;2023-05-25T08:37:12;25.87;;;7.50;;
15706;SDS011;7953;54.302;10.128;2023-05-25T08:39:39;17.37;;;6.03;;
15706;SDS011;7953;54.302;10.128;2023-05-25T08:42:07;20.73;;;5.53;;
15706;SDS011;7953;54.302;10.128;2023-05-25T08:44:35;20.47;;;5.77;;
15706;SDS011;7953;54.302;10.128;2023-05-25T08:47:03;14.97;;;5.93;;
15706;SDS011;7953;54.302;10.128;2023-05-25T08:49:33;24.83;;;6.37;;
15706;SDS011;7953;54.302;10.128;2023-05-25T08:52:02;20.77;;;5.57;;
15706;SDS011;7953;54.302;10.128;2023-05-25T08:54:31;21.63;;;6.17;;
15706;SDS011;7953;54.302;10.128;2023-05-25T08:57:00;19.53;;;5.93;;
15706;SDS011;7953;54.302;10.128;2023-05-25T08:59:37;18.30;;;5.33;;
15706;SDS011;7953;54.302;10.128;2023-05-25T09:02:13;18.03;;;6.00;;
15706;SDS011;7953;54.302;10.128;2023-05-25T09:04:47;20.87;;;5.97;;
15706;SDS011;7953;54.302;10.128;2023-05-25T09:07:14;17.87;;;5.63;;
15706;SDS011;7953;54.302;10.128;2023-05-25T09:09:41;20.00;;;6.27;;
15706;SDS011;7953;54.302;10.128;2023-05-25T09:12:08;26.37;;;6.63;;
15706;SDS011;7953;54.302;10.128;2023-05-25T09:14:37;18.37;;;5.57;;
15706;SDS011;7953;54.302;10.128;2023-05-25T09:17:09;20.73;;;5.97;;
15706;SDS011;7953;54.302;10.128;2023-05-25T09:19:37;23.67;;;5.80;;
15706;SDS011;7953;54.302;10.128;2023-05-25T09:22:04;15.50;;;5.37;;
15706;SDS011;7953;54.302;10.128;2023-05-25T09:24:31;20.67;;;5.93;;
15706;SDS011;7953;54.302;10.128;2023-05-25T09:26:59;20.13;;;5.60;;
15706;SDS011;7953;54.302;10.128;2023-05-25T09:29:27;19.67;;;5.70;;
15706;SDS011;7953;54.302;10.128;2023-05-25T09:35:11;16.53;;;4.93;;
15706;SDS011;7953;54.302;10.128;2023-05-25T09:37:39;23.43;;;6.50;;
15706;SDS011;7953;54.302;10.128;2023-05-25T09:40:07;16.50;;;5.30;;
15706;SDS011;7953;54.302;10.128;2023-05-25T09:42:35;14.63;;;5.57;;
15706;SDS011;7953;54.302;10.128;2023-05-25T09:45:03;14.33;;;5.50;;
15706;SDS011;7953;54.302;10.128;2023-05-25T09:47:31;18.00;;;5.70;;
15706;SDS011;7953;54.302;10.128;2023-05-25T09:49:58;18.67;;;6.10;;
15706;SDS011;7953;54.302;10.128;2023-05-25T09:52:26;18.27;;;5.47;;
15706;SDS011;7953;54.302;10.128;2023-05-25T09:54:53;17.27;;;6.13;;
15706;SDS011;7953;54.302;10.128;2023-05-25T09:57:23;14.77;;;5.77;;
15706;SDS011;7953;54.302;10.128;2023-05-25T09:59:49;15.50;;;5.80;;
15706;SDS011;7953;54.302;10.128;2023-05-25T10:02:17;18.33;;;6.30;;
15706;SDS011;7953;54.302;10.128;2023-05-25T10:04:44;15.57;;;5.20;;
15706;SDS011;7953;54.302;10.128;2023-05-25T10:07:12;16.43;;;6.37;;
15706;SDS011;7953;54.302;10.128;2023-05-25T10:09:42;13.27;;;5.03;;
15706;SDS011;7953;54.302;10.128;2023-05-25T10:12:11;12.73;;;4.47;;
15706;SDS011;7953;54.302;10.128;2023-05-25T10:14:42;19.53;;;6.20;;
15706;SDS011;7953;54.302;10.128;2023-05-25T10:17:11;17.63;;;5.70;;
15706;SDS011;7953;54.302;10.128;2023-05-25T10:19:44;14.43;;;4.73;;
15706;SDS011;7953;54.302;10.128;2023-05-25T10:22:18;19.20;;;5.43;;
15706;SDS011;7953;54.302;10.128;2023-05-25T10:24:51;15.07;;;5.90;;
15706;SDS011;7953;54.302;10.128;2023-05-25T10:27:22;12.70;;;5.40;;
15706;SDS011;7953;54.302;10.128;2023-05-25T10:29:50;15.30;;;5.37;;
15706;SDS011;7953;54.302;10.128;2023-05-25T10:32:18;17.77;;;5.97;;
15706;SDS011;7953;54.302;10.128;2023-05-25T10:34:45;15.00;;;5.00;;
15706;SDS011;7953;54.302;10.128;2023-05-25T10:37:13;13.03;;;5.43;;
15706;SDS011;7953;54.302;10.128;2023-05-25T10:39:42;18.40;;;6.33;;
15706;SDS011;7953;54.302;10.128;2023-05-25T10:42:11;14.73;;;5.77;;
15706;SDS011;7953;54.302;10.128;2023-05-25T10:44:38;15.60;;;5.23;;
15706;SDS011;7953;54.302;10.128;2023-05-25T10:47:07;15.93;;;5.63;;
15706;SDS011;7953;54.302;10.128;2023-05-25T10:49:49;14.23;;;5.33;;
15706;SDS011;7953;54.302;10.128;2023-05-25T10:52:18;18.83;;;6.00;;
15706;SDS011;7953;54.302;10.128;2023-05-25T10:54:45;13.27;;;5.23;;
15706;SDS011;7953;54.302;10.128;2023-05-25T10:57:18;13.63;;;4.73;;
15706;SDS011;7953;54.302;10.128;2023-05-25T10:59:48;13.87;;;5.13;;
15706;SDS011;7953;54.302;10.128;2023-05-25T11:02:19;13.80;;;5.43;;
15706;SDS011;7953;54.302;10.128;2023-05-25T11:04:47;21.77;;;5.67;;
15706;SDS011;7953;54.302;10.128;2023-05-25T11:07:14;13.27;;;5.03;;
15706;SDS011;7953;54.302;10.128;2023-05-25T11:09:54;14.00;;;5.23;;
15706;SDS011;7953;54.302;10.128;2023-05-25T11:12:24;14.73;;;5.50;;
15706;SDS011;7953;54.302;10.128;2023-05-25T11:15:08;14.80;;;5.53;;
15706;SDS011;7953;54.302;10.128;2023-05-25T11:20:27;13.37;;;5.30;;
15706;SDS011;7953;54.302;10.128;2023-05-25T11:22:58;14.37;;;6.27;;
15706;SDS011;7953;54.302;10.128;2023-05-25T11:25:44;14.97;;;4.77;;
15706;SDS011;7953;54.302;10.128;2023-05-25T11:28:13;13.13;;;4.77;;
15706;SDS011;7953;54.302;10.128;2023-05-25T11:30:40;13.87;;;4.67;;
15706;SDS011;7953;54.302;10.128;2023-05-25T11:33:07;15.77;;;5.50;;
15706;SDS011;7953;54.302;10.128;2023-05-25T11:35:35;10.87;;;4.87;;
15706;SDS011;7953;54.302;10.128;2023-05-25T11:38:05;16.07;;;5.63;;
15706;SDS011;7953;54.302;10.128;2023-05-25T11:40:33;13.60;;;5.70;;
15706;SDS011;7953;54.302;10.128;2023-05-25T11:43:01;21.80;;;6.30;;
15706;SDS011;7953;54.302;10.128;2023-05-25T11:45:31;18.07;;;5.67;;
15706;SDS011;7953;54.302;10.128;2023-05-25T11:47:59;15.70;;;5.77;;
15706;SDS011;7953;54.302;10.128;2023-05-25T11:50:25;17.87;;;5.97;;
15706;SDS011;7953;54.302;10.128;2023-05-25T11:52:53;19.60;;;7.77;;
15706;SDS011;7953;54.302;10.128;2023-05-25T11:55:20;20.27;;;8.03;;
15706;SDS011;7953;54.302;10.128;2023-05-25T11:57:53;17.47;;;5.30;;
15706;SDS011;7953;54.302;10.128;2023-05-25T12:00:24;13.47;;;5.07;;
15706;SDS011;7953;54.302;10.128;2023-05-25T12:02:53;11.53;;;5.30;;
15706;SDS011;7953;54.302;10.128;2023-05-25T12:05:21;16.47;;;5.33;;
15706;SDS011;7953;54.302;10.128;2023-05-25T12:07:48;17.40;;;5.43;;
15706;SDS011;7953;54.302;10.128;2023-05-25T12:10:15;15.40;;;5.23;;
15706;SDS011;7953;54.302;10.128;2023-05-25T12:12:42;14.30;;;5.47;;
15706;SDS011;7953;54.302;10.128;2023-05-25T12:15:11;16.37;;;5.43;;
15706;SDS011;7953;54.302;10.128;2023-05-25T12:17:40;17.65;;;6.30;;
15706;SDS011;7953;54.302;10.128;2023-05-25T12:20:09;15.07;;;5.77;;
15706;SDS011;7953;54.302;10.128;2023-05-25T12:22:37;10.90;;;4.70;;
15706;SDS011;7953;54.302;10.128;2023-05-25T12:25:05;14.15;;;5.57;;
15706;SDS011;7953;54.302;10.128;2023-05-25T12:27:34;14.00;;;5.63;;
15706;SDS011;7953;54.302;10.128;2023-05-25T12:30:02;15.55;;;5.40;;
15706;SDS011;7953;54.302;10.128;2023-05-25T12:32:30;14.52;;;5.72;;
15706;SDS011;7953;54.302;10.128;2023-05-25T12:35:03;14.63;;;5.32;;
15706;SDS011;7953;54.302;10.128;2023-05-25T12:37:33;13.48;;;5.07;;
15706;SDS011;7953;54.302;10.128;2023-05-25T12:40:00;10.68;;;4.30;;
15706;SDS011;7953;54.302;10.128;2023-05-25T12:42:41;11.50;;;4.90;;
15706;SDS011;7953;54.302;10.128;2023-05-25T12:45:08;16.08;;;5.40;;
15706;SDS011;7953;54.302;10.128;2023-05-25T12:47:36;17.42;;;5.18;;
15706;SDS011;7953;54.302;10.128;2023-05-25T12:50:10;13.98;;;5.22;;
15706;SDS011;7953;54.302;10.128;2023-05-25T12:52:39;11.18;;;5.20;;
15706;SDS011;7953;54.302;10.128;2023-05-25T12:55:23;11.55;;;5.07;;
15706;SDS011;7953;54.302;10.128;2023-05-25T12:57:51;14.20;;;5.20;;
15706;SDS011;7953;54.302;10.128;2023-05-25T13:00:19;10.75;;;4.15;;
15706;SDS011;7953;54.302;10.128;2023-05-25T13:02:47;14.68;;;5.10;;
15706;SDS011;7953;54.302;10.128;2023-05-25T13:05:20;11.48;;;5.32;;
15706;SDS011;7953;54.302;10.128;2023-05-25T13:07:50;11.07;;;4.35;;
15706;SDS011;7953;54.302;10.128;2023-05-25T13:10:18;12.32;;;4.32;;
15706;SDS011;7953;54.302;10.128;2023-05-25T13:12:45;9.23;;;4.60;;
15706;SDS011;7953;54.302;10.128;2023-05-25T13:15:13;14.65;;;4.47;;
15706;SDS011;7953;54.302;10.128;2023-05-25T13:17:41;12.32;;;4.35;;
15706;SDS011;7953;54.302;10.128;2023-05-25T13:20:10;12.10;;;4.70;;
15706;SDS011;7953;54.302;10.128;2023-05-25T13:22:38;12.27;;;4.88;;
15706;SDS011;7953;54.302;10.128;2023-05-25T13:25:07;15.88;;;5.68;;
15706;SDS011;7953;54.302;10.128;2023-05-25T13:27:35;11.77;;;5.20;;
15706;SDS011;7953;54.302;10.128;2023-05-25T13:30:03;14.13;;;5.18;;
15706;SDS011;7953;54.302;10.128;2023-05-25T13:32:31;10.57;;;4.55;;
15706;SDS011;7953;54.302;10.128;2023-05-25T13:34:58;13.30;;;4.22;;
15706;SDS011;7953;54.302;10.128;2023-05-25T13:37:25;13.32;;;4.65;;
15706;SDS011;7953;54.302;10.128;2023-05-25T13:39:52;9.95;;;4.47;;
15706;SDS011;7953;54.302;10.128;2023-05-25T13:42:24;9.93;;;4.00;;
15706;SDS011;7953;54.302;10.128;2023-05-25T13:44:51;11.65;;;4.80;;
15706;SDS011;7953;54.302;10.128;2023-05-25T13:47:18;9.85;;;4.43;;
15706;SDS011;7953;54.302;10.128;2023-05-25T13:49:45;13.80;;;4.72;;
15706;SDS011;7953;54.302;10.128;2023-05-25T13:52:12;12.85;;;5.13;;
15706;SDS011;7953;54.302;10.128;2023-05-25T13:54:39;10.63;;;4.50;;
15706;SDS011;7953;54.302;10.128;2023-05-25T13:57:06;13.48;;;4.10;;
15706;SDS011;7953;54.302;10.128;2023-05-25T13:59:34;13.57;;;4.30;;
15706;SDS011;7953;54.302;10.128;2023-05-25T14:02:02;9.32;;;4.70;;
15706;SDS011;7953;54.302;10.128;2023-05-25T14:04:29;10.82;;;5.03;;
15706;SDS011;7953;54.302;10.128;2023-05-25T14:06:56;11.20;;;4.88;;
15706;SDS011;7953;54.302;10.128;2023-05-25T14:09:23;8.27;;;3.90;;
15706;SDS011;7953;54.302;10.128;2023-05-25T14:11:50;15.00;;;5.45;;
15706;SDS011;7953;54.302;10.128;2023-05-25T14:14:17;10.55;;;4.55;;
15706;SDS011;7953;54.302;10.128;2023-05-25T14:16:45;11.43;;;4.88;;
15706;SDS011;7953;54.302;10.128;2023-05-25T14:19:12;12.15;;;4.35;;
15706;SDS011;7953;54.302;10.128;2023-05-25T14:21:41;14.77;;;4.65;;
15706;SDS011;7953;54.302;10.128;2023-05-25T14:24:07;12.73;;;5.18;;
15706;SDS011;7953;54.302;10.128;2023-05-25T14:26:35;13.43;;;5.72;;
15706;SDS011;7953;54.302;10.128;2023-05-25T14:29:02;14.07;;;5.05;;
15706;SDS011;7953;54.302;10.128;2023-05-25T14:31:29;9.93;;;4.50;;
15706;SDS011;7953;54.302;10.128;2023-05-25T14:33:57;10.63;;;4.65;;
15706;SDS011;7953;54.302;10.128;2023-05-25T14:36:24;14.43;;;4.90;;
15706;SDS011;7953;54.302;10.128;2023-05-25T14:38:51;16.13;;;5.25;;
15706;SDS011;7953;54.302;10.128;2023-05-25T14:41:18;13.60;;;5.07;;
15706;SDS011;7953;54.302;10.128;2023-05-25T14:43:46;13.82;;;5.20;;
15706;SDS011;7953;54.302;10.128;2023-05-25T14:46:13;11.25;;;4.32;;
15706;SDS011;7953;54.302;10.128;2023-05-25T14:48:40;12.20;;;4.10;;